createdAt,value
2022-10-02T00:00:24.392Z,98708.31
2022-10-02T00:02:43.371Z,98741.09
2022-10-02T00:03:58.825Z,98726.75
2022-10-02T00:06:05.762Z,98733.38
2022-10-02T00:07:14.844Z,98724.75
2022-10-02T00:08:36.768Z,98737.13
2022-10-02T00:09:56.515Z,98736.16
2022-10-02T00:11:28.914Z,98740.50
2022-10-02T00:12:37.822Z,98726.28
2022-10-02T00:14:04.311Z,98749.22
2022-10-02T00:15:23.808Z,98741.22
2022-10-02T00:16:44.276Z,98750.91
2022-10-02T00:17:57.422Z,98743.75
2022-10-02T00:19:04.770Z,98750.78
2022-10-02T00:20:20.094Z,98760.31
2022-10-02T00:23:55.300Z,98709.72
2022-10-02T02:31:21.319Z,98834.50
2022-10-02T02:32:32.322Z,98834.34
2022-10-02T02:33:46.672Z,98835.06
2022-10-02T02:35:02.210Z,98841.38
2022-10-02T02:36:14.579Z,98834.91
2022-10-02T02:37:26.561Z,98836.28
2022-10-02T02:38:45.191Z,98833.75
2022-10-02T02:40:05.446Z,98830.66
2022-10-02T02:41:28.732Z,98847.50
2022-10-02T02:42:43.217Z,98835.66
2022-10-02T02:44:09.696Z,98831.31
2022-10-02T02:45:25.391Z,98833.81
2022-10-02T02:47:04.703Z,98842.06
2022-10-02T02:48:26.527Z,98842.91
2022-10-02T02:49:39.881Z,98840.38
2022-10-02T02:50:59.797Z,98833.91
2022-10-02T02:52:10.923Z,98844.72
2022-10-02T02:53:40.169Z,98846.53
2022-10-02T02:54:58.321Z,98848.06
2022-10-02T02:56:10.853Z,98840.34
2022-10-02T02:57:21.062Z,98846.06
2022-10-02T02:58:42.402Z,98842.25
2022-10-02T02:59:51.589Z,98846.06
2022-10-02T03:00:56.841Z,98846.50
2022-10-02T03:02:01.902Z,98847.34
2022-10-02T03:03:06.546Z,98848.03
2022-10-02T03:04:15.959Z,98857.56
2022-10-02T03:05:21.734Z,98849.41
2022-10-02T03:06:33.677Z,98855.91
2022-10-02T03:07:39.015Z,98848.19
2022-10-02T03:08:45.695Z,98841.72
2022-10-02T03:10:21.957Z,98847.03
2022-10-02T03:11:50.588Z,98851.81
2022-10-02T03:13:22.245Z,98852.06
2022-10-02T03:15:04.335Z,98860.44
2022-10-02T03:16:36.525Z,98855.00
2022-10-02T03:18:02.971Z,98849.53
2022-10-02T03:19:40.889Z,98857.13
2022-10-02T03:21:01.839Z,98857.13
2022-10-02T03:22:30.036Z,98859.66
2022-10-02T03:24:27.714Z,98850.66
2022-10-02T03:25:53.015Z,98858.03
2022-10-02T03:27:09.581Z,98860.72
2022-10-02T03:28:54.557Z,98857.75
2022-10-02T03:30:13.927Z,98856.81
2022-10-02T03:31:21.560Z,98863.97
2022-10-02T03:32:28.842Z,98861.03
2022-10-02T03:33:37.756Z,98857.66
2022-10-02T03:34:42.100Z,98870.84
2022-10-02T03:35:46.934Z,98859.88
2022-10-02T03:36:51.694Z,98864.22
2022-10-02T03:38:05.993Z,98870.84
2022-10-02T03:39:26.627Z,98872.06
2022-10-02T03:40:30.839Z,98879.50
2022-10-02T03:41:35.008Z,98878.66
2022-10-02T03:42:40.661Z,98873.31
2022-10-02T03:43:46.136Z,98871.00
2022-10-02T03:44:50.551Z,98867.47
2022-10-02T03:45:54.961Z,98880.97
2022-10-02T03:47:01.080Z,98882.53
2022-10-02T03:48:06.583Z,98883.38
2022-10-02T03:49:11.208Z,98895.03
2022-10-02T03:50:17.944Z,98888.13
2022-10-02T03:51:25.172Z,98894.19
2022-10-02T03:52:35.875Z,98889.41
2022-10-02T03:53:42.596Z,98892.22
2022-10-02T03:54:49.333Z,98892.81
2022-10-02T03:56:09.723Z,98894.50
2022-10-02T03:57:22.913Z,98889.41
2022-10-02T03:58:27.570Z,98887.47
2022-10-02T04:00:04.530Z,98892.28
2022-10-02T04:01:19.410Z,98888.63
2022-10-02T04:02:49.178Z,98885.25
2022-10-02T04:04:30.050Z,98896.56
2022-10-02T04:06:04.922Z,98899.56
2022-10-02T04:07:38.461Z,98899.56
2022-10-02T04:08:59.409Z,98899.22
2022-10-02T04:10:14.284Z,98896.31
2022-10-02T04:11:40.233Z,98894.75
2022-10-02T04:13:12.221Z,98897.69
2022-10-02T04:14:37.501Z,98904.69
2022-10-02T04:15:47.886Z,98910.44
2022-10-02T04:17:04.564Z,98903.16
2022-10-02T04:18:23.206Z,98909.91
2022-10-02T04:19:49.883Z,98916.88
2022-10-02T04:21:05.590Z,98914.59
2022-10-02T04:22:46.552Z,98922.19
2022-10-02T04:24:12.991Z,98923.31
2022-10-02T04:25:25.382Z,98915.78
2022-10-02T04:26:40.072Z,98914.66
2022-10-02T04:27:58.347Z,98935.47
2022-10-02T04:29:28.917Z,98932.19
2022-10-02T04:30:32.859Z,98933.50
2022-10-02T04:31:37.164Z,98924.06
2022-10-02T04:32:41.164Z,98934.63
2022-10-02T04:33:45.526Z,98928.44
2022-10-02T04:34:49.574Z,98931.81
2022-10-02T04:36:08.340Z,98936.44
2022-10-02T04:37:27.699Z,98933.31
2022-10-02T04:38:55.343Z,98937.94
2022-10-02T04:40:08.453Z,98942.22
2022-10-02T04:41:52.327Z,98951.38
2022-10-02T04:43:42.605Z,98955.63
2022-10-02T04:45:16.623Z,98954.88
2022-10-02T04:47:00.889Z,98957.56
2022-10-02T04:48:32.722Z,98947.94
2022-10-02T04:50:01.589Z,98951.81
2022-10-02T04:51:27.805Z,98969.75
2022-10-02T04:52:46.943Z,98965.41
2022-10-02T04:54:05.879Z,98967.56
2022-10-02T04:55:35.934Z,98977.00
2022-10-02T04:57:01.361Z,98968.47
2022-10-02T04:58:23.639Z,98977.19
2022-10-02T05:00:07.277Z,98972.38
2022-10-02T05:01:42.820Z,98980.97
2022-10-02T05:03:24.110Z,98976.63
2022-10-02T05:04:31.044Z,98988.13
2022-10-02T05:06:31.663Z,98977.47
2022-10-02T05:07:48.284Z,98987.00
2022-10-02T05:09:28.434Z,98997.34
2022-10-02T05:10:57.542Z,98990.31
2022-10-02T05:12:11.465Z,98992.28
2022-10-02T05:13:55.251Z,98990.91
2022-10-02T05:15:35.516Z,98989.09
2022-10-02T05:17:13.572Z,98995.91
2022-10-02T05:18:38.143Z,98997.81
2022-10-02T05:20:32.924Z,98991.63
2022-10-02T05:21:57.411Z,98999.34
2022-10-02T05:23:22.458Z,99001.31
2022-10-02T05:24:32.004Z,99000.09
2022-10-02T05:26:01.329Z,99004.13
2022-10-02T05:27:30.349Z,99005.59
2022-10-02T05:28:56.131Z,99001.13
2022-10-02T05:30:20.367Z,99005.31
2022-10-02T05:32:15.837Z,99004.63
2022-10-02T05:33:48.512Z,99005.47
2022-10-02T05:35:29.804Z,99011.41
2022-10-02T05:37:11.772Z,99015.00
2022-10-02T05:38:43.430Z,99009.19
2022-10-02T05:40:09.373Z,99020.16
2022-10-02T05:41:23.462Z,99017.63
2022-10-02T05:42:44.427Z,99021.41
2022-10-02T05:44:13.152Z,99024.66
2022-10-02T05:45:37.296Z,99026.34
2022-10-02T05:47:10.200Z,99032.66
2022-10-02T05:48:17.373Z,99029.16
2022-10-02T05:49:29.808Z,99028.31
2022-10-02T05:50:38.439Z,99025.78
2022-10-02T05:51:59.836Z,99040.91
2022-10-02T05:53:41.471Z,99037.75
2022-10-02T05:54:59.148Z,99029.84
2022-10-02T05:56:24.388Z,99029.28
2022-10-02T05:57:42.120Z,99046.69
2022-10-02T05:58:59.627Z,99036.03
2022-10-02T06:00:22.917Z,99037.75
2022-10-02T06:01:32.699Z,99042.69
2022-10-02T06:03:00.798Z,99043.53
2022-10-02T06:04:41.827Z,99048.16
2022-10-02T06:06:14.614Z,99055.44
2022-10-02T06:07:22.461Z,99045.63
2022-10-02T06:08:53.837Z,99052.25
2022-10-02T06:10:29.801Z,99051.72
2022-10-02T06:11:46.992Z,99057.78
2022-10-02T06:13:15.306Z,99055.22
2022-10-02T06:14:37.585Z,99059.34
2022-10-02T06:16:01.045Z,99061.16
2022-10-02T06:17:15.376Z,99052.19
2022-10-02T06:18:27.870Z,99066.22
2022-10-02T06:20:04.199Z,99055.13
2022-10-02T06:21:26.424Z,99063.69
2022-10-02T06:22:41.878Z,99067.47
2022-10-02T06:23:56.818Z,99063.13
2022-10-02T06:25:17.884Z,99070.16
2022-10-02T06:27:05.033Z,99064.81
2022-10-02T06:28:46.442Z,99073.16
2022-10-02T06:30:27.298Z,99079.56
2022-10-02T06:31:54.314Z,99079.63
2022-10-02T06:33:17.083Z,99073.81
2022-10-02T06:34:21.365Z,99066.53
2022-10-02T06:35:39.815Z,99088.72
2022-10-02T06:37:03.283Z,99080.72
2022-10-02T06:38:19.746Z,99086.91
2022-10-02T06:40:14.233Z,99088.09
2022-10-02T06:41:47.693Z,99088.53
2022-10-02T06:43:09.128Z,99086.34
2022-10-02T06:44:32.140Z,99086.06
2022-10-02T06:46:08.454Z,99083.59
2022-10-02T06:48:03.131Z,99082.56
2022-10-02T06:49:31.220Z,99077.88
2022-10-02T06:51:31.754Z,99089.09
2022-10-02T06:53:27.837Z,99089.88
2022-10-02T06:54:54.478Z,99089.50
2022-10-02T06:56:35.144Z,99088.44
2022-10-02T06:58:02.456Z,99089.41
2022-10-02T07:00:00.960Z,99094.38
2022-10-02T07:01:41.479Z,99092.53
2022-10-02T07:03:29.744Z,99087.50
2022-10-02T07:05:06.506Z,99092.41
2022-10-02T07:06:48.016Z,99095.25
2022-10-02T07:08:16.986Z,99101.44
2022-10-02T07:09:39.492Z,99092.97
2022-10-02T07:11:20.308Z,99107.03
2022-10-02T07:12:38.628Z,99107.75
2022-10-02T07:14:16.964Z,99103.94
2022-10-02T07:16:01.226Z,99108.59
2022-10-02T07:17:22.196Z,99108.03
2022-10-02T07:19:08.394Z,99106.06
2022-10-02T07:21:08.910Z,99106.88
2022-10-02T07:22:45.587Z,99120.66
2022-10-02T07:24:43.137Z,99097.56
2022-10-02T07:26:03.525Z,99112.94
2022-10-02T07:27:50.853Z,99109.94
2022-10-02T07:29:33.318Z,99107.53
2022-10-02T07:30:59.836Z,99113.16
2022-10-02T07:32:34.966Z,99122.28
2022-10-02T07:34:32.230Z,99117.53
2022-10-02T07:36:00.867Z,99112.88
2022-10-02T07:37:04.928Z,99116.81
2022-10-02T07:38:18.590Z,99117.53
2022-10-02T07:39:45.781Z,99122.72
2022-10-02T07:41:00.277Z,99121.63
2022-10-02T07:42:18.826Z,99108.38
2022-10-02T07:43:49.253Z,99121.72
2022-10-02T07:45:26.769Z,99112.34
2022-10-02T07:47:16.723Z,99113.19
2022-10-02T07:49:17.101Z,99106.34
2022-10-02T07:50:47.869Z,99114.66
2022-10-02T07:53:17.292Z,99111.59
2022-10-02T07:55:11.064Z,99105.16
2022-10-02T07:56:52.451Z,99106.13
2022-10-02T07:58:41.121Z,99101.22
2022-10-02T08:00:04.679Z,99091.53
2022-10-02T08:01:29.251Z,99101.00
2022-10-02T08:04:59.998Z,99110.38
2022-10-02T08:06:11.993Z,99103.50
2022-10-02T08:07:34.929Z,99093.25
2022-10-02T08:09:36.638Z,99095.63
2022-10-02T08:11:37.188Z,99099.06
2022-10-02T08:12:54.609Z,99109.28
2022-10-02T08:14:46.890Z,99096.88
2022-10-02T08:15:58.314Z,99099.31
2022-10-02T08:17:41.229Z,99101.38
2022-10-02T08:19:02.642Z,99100.22
2022-10-02T08:20:37.054Z,99117.41
2022-10-02T08:22:12.430Z,99105.38
2022-10-02T08:23:30.056Z,99101.91
2022-10-02T08:24:47.259Z,99095.84
2022-10-02T08:26:06.033Z,99112.41
2022-10-02T08:27:18.578Z,99103.31
2022-10-02T08:28:37.219Z,99103.16
2022-10-02T08:29:52.921Z,99107.03
2022-10-02T08:30:59.242Z,99099.47
2022-10-02T08:32:05.804Z,99098.59
2022-10-02T08:33:24.919Z,99095.38
2022-10-02T08:34:33.862Z,99088.25
2022-10-02T08:36:17.328Z,99103.28
2022-10-02T08:37:58.445Z,99082.59
2022-10-02T08:39:30.739Z,99093.69
2022-10-02T08:41:24.489Z,99103.44
2022-10-02T08:43:17.183Z,99098.22
2022-10-02T08:45:15.442Z,99091.63
2022-10-02T08:46:45.493Z,99095.28
2022-10-02T08:48:01.486Z,99097.66
2022-10-02T08:49:40.210Z,99088.44
2022-10-02T08:51:22.217Z,99090.63
2022-10-02T08:53:28.371Z,99095.25
2022-10-02T08:55:02.962Z,99084.53
2022-10-02T08:56:48.325Z,99085.28
2022-10-02T08:58:28.041Z,99082.75
2022-10-02T09:00:23.444Z,99086.38
2022-10-02T09:01:59.561Z,99089.44
2022-10-02T09:03:20.104Z,99093.81
2022-10-02T09:04:47.014Z,99090.56
2022-10-02T09:06:18.961Z,99080.63
2022-10-02T09:08:14.924Z,99082.84
2022-10-02T09:09:47.155Z,99085.97
2022-10-02T09:11:10.643Z,99080.47
2022-10-02T09:12:45.060Z,99095.84
2022-10-02T09:14:25.067Z,99088.19
2022-10-02T09:16:07.962Z,99094.03
2022-10-02T09:17:36.455Z,99078.06
2022-10-02T09:19:24.020Z,99083.88
2022-10-02T09:21:19.311Z,99082.03
2022-10-02T09:23:22.505Z,99067.44
2022-10-02T09:25:14.341Z,99076.66
2022-10-02T09:26:49.524Z,99074.00
2022-10-02T09:28:12.567Z,99074.59
2022-10-02T09:29:51.083Z,99073.59
2022-10-02T09:32:10.015Z,99074.50
2022-10-02T09:34:06.066Z,99068.25
2022-10-02T09:35:54.642Z,99071.34
2022-10-02T09:37:32.682Z,99064.00
2022-10-02T09:39:05.057Z,99066.25
2022-10-02T09:40:56.368Z,99066.25
2022-10-02T09:42:42.487Z,99068.56
2022-10-02T09:44:32.267Z,99079.19
2022-10-02T09:46:24.576Z,99073.69
2022-10-02T09:48:09.349Z,99078.66
2022-10-02T09:50:16.133Z,99072.34
2022-10-02T09:52:03.300Z,99065.59
2022-10-02T09:53:36.280Z,99063.75
2022-10-02T09:55:02.397Z,99054.56
2022-10-02T09:56:30.026Z,99059.22
2022-10-02T09:58:05.803Z,99053.44
2022-10-02T09:59:38.220Z,99054.09
2022-10-02T10:01:09.096Z,99049.47
2022-10-02T10:02:53.745Z,99053.25
2022-10-02T10:04:09.330Z,99039.72
2022-10-02T10:06:00.908Z,99052.13
2022-10-02T10:07:54.601Z,99057.88
2022-10-02T10:09:31.222Z,99051.38
2022-10-02T10:11:48.588Z,99053.00
2022-10-02T10:13:42.229Z,99051.44
2022-10-02T10:15:11.331Z,99043.22
2022-10-02T10:17:13.091Z,99052.28
2022-10-02T10:19:04.299Z,99051.69
2022-10-02T10:20:42.104Z,99042.41
2022-10-02T10:22:24.801Z,99042.88
2022-10-02T10:23:47.518Z,99046.09
2022-10-02T10:25:36.051Z,99047.59
2022-10-02T10:27:08.084Z,99048.16
2022-10-02T10:29:00.635Z,99045.56
2022-10-02T10:30:33.554Z,99041.31
2022-10-02T10:32:27.399Z,99041.31
2022-10-02T10:34:31.768Z,99041.38
2022-10-02T10:36:44.518Z,99040.53
2022-10-02T10:38:54.497Z,99041.28
2022-10-02T10:40:21.866Z,99045.66
2022-10-02T10:42:25.619Z,99033.94
2022-10-02T10:44:11.822Z,99045.19
2022-10-02T10:46:00.882Z,99040.00
2022-10-02T10:47:34.899Z,99034.19
2022-10-02T10:49:18.416Z,99039.72
2022-10-02T10:50:57.874Z,99033.34
2022-10-02T10:52:16.684Z,99040.06
2022-10-02T10:54:25.537Z,99042.75
2022-10-02T10:56:12.650Z,99044.06
2022-10-02T10:57:54.000Z,99037.72
2022-10-02T10:59:18.249Z,99046.34
2022-10-02T11:00:59.263Z,99045.66
2022-10-02T11:02:44.330Z,99040.59
2022-10-02T11:04:32.013Z,99040.03
2022-10-02T11:06:20.735Z,99030.19
2022-10-02T11:08:01.610Z,99036.63
2022-10-02T11:09:26.833Z,99035.47
2022-10-02T11:11:08.611Z,99028.50
2022-10-02T11:13:04.129Z,99027.75
2022-10-02T11:14:44.209Z,99024.19
2022-10-02T11:16:20.749Z,99028.22
2022-10-02T11:18:30.192Z,99029.31
2022-10-02T11:20:21.851Z,99018.81
2022-10-02T11:21:57.940Z,99026.56
2022-10-02T11:23:57.066Z,99026.41
2022-10-02T11:25:54.713Z,99015.84
2022-10-02T11:27:39.005Z,99015.31
2022-10-02T11:29:11.750Z,99026.03
2022-10-02T11:30:44.474Z,99020.25
2022-10-02T11:32:52.780Z,99010.84
2022-10-02T11:34:22.012Z,99031.59
2022-10-02T11:35:53.529Z,99026.09
2022-10-02T11:37:24.930Z,99017.91
2022-10-02T11:38:46.731Z,99023.44
2022-10-02T11:40:13.307Z,99022.66
2022-10-02T11:41:47.379Z,99017.97
2022-10-02T11:43:43.810Z,99017.13
2022-10-02T11:45:10.230Z,99015.13
2022-10-02T11:46:55.583Z,99011.94
2022-10-02T11:48:12.960Z,99009.94
2022-10-02T11:50:02.396Z,99004.56
2022-10-02T11:51:28.343Z,99011.78
2022-10-02T11:53:05.186Z,99013.47
2022-10-02T11:54:58.453Z,98994.69
2022-10-02T11:56:34.024Z,99003.34
2022-10-02T11:58:18.587Z,99001.72
2022-10-02T12:00:09.315Z,99000.13
2022-10-02T12:01:46.119Z,98995.81
2022-10-02T12:03:36.874Z,98985.91
2022-10-02T12:05:18.709Z,98987.16
2022-10-02T12:07:11.037Z,98983.13
2022-10-02T12:08:52.148Z,98992.50
2022-10-02T12:10:50.913Z,98990.78
2022-10-02T12:12:33.321Z,98989.50
2022-10-02T12:14:14.338Z,98982.28
2022-10-02T12:15:54.197Z,98994.94
2022-10-02T12:17:34.311Z,98996.63
2022-10-02T12:19:15.249Z,99000.16
2022-10-02T12:20:56.443Z,99031.81
2022-10-02T12:22:49.485Z,99019.56
2022-10-02T12:24:30.418Z,99015.38
2022-10-02T12:26:26.354Z,99004.78
2022-10-02T12:27:39.623Z,99011.66
2022-10-02T12:29:00.896Z,98997.50
2022-10-02T12:30:25.863Z,98998.25
2022-10-02T12:31:53.794Z,98995.41
2022-10-02T12:33:23.113Z,98996.31
2022-10-02T12:35:20.845Z,98991.69
2022-10-02T12:36:59.526Z,98989.03
2022-10-02T12:39:21.976Z,98987.94
2022-10-02T12:40:53.118Z,98979.75
2022-10-02T12:42:18.391Z,98992.97
2022-10-02T12:44:33.110Z,98981.41
2022-10-02T12:46:10.807Z,98971.69
2022-10-02T12:47:47.923Z,98960.66
2022-10-02T12:49:39.705Z,98954.88
2022-10-02T12:51:56.098Z,98963.31
2022-10-02T12:53:18.794Z,98950.47
2022-10-02T12:54:53.983Z,98950.84
2022-10-02T12:56:44.781Z,98949.69
2022-10-02T12:58:59.781Z,98956.28
2022-10-02T13:00:24.799Z,98954.41
2022-10-02T13:03:00.311Z,98948.72
2022-10-02T13:04:38.594Z,98952.75
2022-10-02T13:06:22.679Z,98945.28
2022-10-02T13:07:56.954Z,98944.94
2022-10-02T13:09:44.367Z,98942.66
2022-10-02T13:11:55.888Z,98936.69
2022-10-02T13:13:26.690Z,98934.91
2022-10-02T13:15:40.570Z,98931.91
2022-10-02T13:17:26.556Z,98931.44
2022-10-02T13:18:44.600Z,98933.13
2022-10-02T13:20:26.666Z,98931.34
2022-10-02T13:21:57.890Z,98918.91
2022-10-02T13:23:36.153Z,98917.16
2022-10-02T13:24:59.855Z,98917.66
2022-10-02T13:26:32.929Z,98909.31
2022-10-02T13:28:13.966Z,98905.31
2022-10-02T13:29:56.666Z,98919.81
2022-10-02T13:31:36.154Z,98910.44
2022-10-02T13:33:35.453Z,98911.13
2022-10-02T13:35:06.812Z,98918.38
2022-10-02T13:36:37.080Z,98922.44
2022-10-02T13:38:29.625Z,98910.53
2022-10-02T13:39:59.698Z,98903.97
2022-10-02T13:41:50.454Z,98905.53
2022-10-02T13:43:38.978Z,98907.88
2022-10-02T13:45:02.336Z,98907.53
2022-10-02T13:46:26.631Z,98901.31
2022-10-02T13:47:57.054Z,98911.25
2022-10-02T13:49:31.547Z,98904.09
2022-10-02T13:50:53.799Z,98896.88
2022-10-02T13:52:30.083Z,98897.56
2022-10-02T13:54:24.770Z,98898.19
2022-10-02T13:55:49.319Z,98894.00
2022-10-02T13:57:36.413Z,98909.25
2022-10-02T13:59:43.893Z,98889.09
2022-10-02T14:02:11.741Z,98895.16
2022-10-02T14:04:07.580Z,98892.13
2022-10-02T14:05:44.666Z,98898.81
2022-10-02T14:07:04.926Z,98901.00
2022-10-02T14:08:40.686Z,98895.09
2022-10-02T14:10:37.389Z,98892.19
2022-10-02T14:12:10.061Z,98892.03
2022-10-02T14:13:46.310Z,98884.31
2022-10-02T14:15:07.352Z,98891.16
2022-10-02T14:17:11.440Z,98902.06
2022-10-02T14:18:45.049Z,98906.59
2022-10-02T14:21:08.221Z,98913.63
2022-10-02T14:22:40.818Z,98913.25
2022-10-02T14:24:15.529Z,98911.41
2022-10-02T14:25:57.870Z,98935.81
2022-10-02T14:27:45.625Z,98931.47
2022-10-02T14:29:23.475Z,98941.09
2022-10-02T14:31:15.882Z,98937.22
2022-10-02T14:33:03.147Z,98923.63
2022-10-02T14:34:55.938Z,98908.72
2022-10-02T14:36:07.453Z,98911.75
2022-10-02T14:38:02.245Z,98909.84
2022-10-02T14:39:37.350Z,98920.63
2022-10-02T14:40:53.440Z,98917.44
2022-10-02T14:42:46.873Z,98918.63
2022-10-02T14:44:13.933Z,98916.53
2022-10-02T14:46:04.361Z,98906.56
2022-10-02T14:47:46.961Z,98883.34
2022-10-02T14:49:18.908Z,98890.09
2022-10-02T14:50:45.468Z,98894.88
2022-10-02T14:52:20.612Z,98892.38
2022-10-02T14:53:47.874Z,98894.75
2022-10-02T14:55:19.447Z,98895.75
2022-10-02T14:56:45.161Z,98893.34
2022-10-02T14:58:52.520Z,98899.03
2022-10-02T15:00:19.413Z,98898.47
2022-10-02T15:01:30.229Z,98897.09
2022-10-02T15:03:34.053Z,98890.44
2022-10-02T15:05:04.532Z,98892.25
2022-10-02T15:06:35.190Z,98883.13
2022-10-02T15:07:41.508Z,98888.91
2022-10-02T15:08:55.437Z,98889.44
2022-10-02T15:10:22.597Z,98888.22
2022-10-02T15:11:36.236Z,98889.59
2022-10-02T15:13:06.943Z,98894.09
2022-10-02T15:14:27.074Z,98887.38
2022-10-02T15:16:33.756Z,98888.22
2022-10-02T15:18:11.648Z,98885.13
2022-10-02T15:19:27.592Z,98890.16
2022-10-02T15:20:38.481Z,98886.50
2022-10-02T15:22:13.498Z,98890.88
2022-10-02T15:23:47.118Z,98888.50
2022-10-02T15:25:43.615Z,98889.06
2022-10-02T15:27:07.484Z,98888.13
2022-10-02T15:28:55.980Z,98895.72
2022-10-02T15:30:27.496Z,98884.47
2022-10-02T15:32:05.018Z,98879.41
2022-10-02T15:33:27.028Z,98871.53
2022-10-02T15:34:50.269Z,98881.53
2022-10-02T15:36:34.564Z,98878.16
2022-10-02T15:38:20.629Z,98877.88
2022-10-02T15:39:49.712Z,98882.09
2022-10-02T15:41:12.934Z,98882.94
2022-10-02T15:43:05.867Z,98893.63
2022-10-02T15:44:51.732Z,98899.00
2022-10-02T15:46:19.826Z,98894.78
2022-10-02T15:47:42.982Z,98901.09
2022-10-02T15:49:01.620Z,98906.44
2022-10-02T15:50:59.197Z,98896.16
2022-10-02T15:52:26.627Z,98900.09
2022-10-02T15:53:55.214Z,98898.84
2022-10-02T15:55:50.014Z,98900.31
2022-10-02T15:57:24.350Z,98897.34
2022-10-02T15:58:40.301Z,98900.75
2022-10-02T16:00:27.962Z,98898.91
2022-10-02T16:02:11.767Z,98890.75
2022-10-02T16:03:43.599Z,98898.47
2022-10-02T16:05:22.091Z,98906.63
2022-10-02T16:07:33.056Z,98904.69
2022-10-02T16:09:37.098Z,98907.66
2022-10-02T16:10:57.446Z,98902.16
2022-10-02T16:12:53.488Z,98897.66
2022-10-02T16:14:12.827Z,98899.91
2022-10-02T16:15:51.851Z,98900.34
2022-10-02T16:17:18.988Z,98894.56
2022-10-02T16:18:35.175Z,98893.41
2022-10-02T16:20:18.681Z,98896.94
2022-10-02T16:21:31.922Z,98911.16
2022-10-02T16:23:51.463Z,98908.06
2022-10-02T16:24:58.898Z,98918.63
2022-10-02T16:26:38.846Z,98931.16
2022-10-02T16:28:09.630Z,98927.38
2022-10-02T16:29:58.597Z,98939.16
2022-10-02T16:31:23.010Z,98952.25
2022-10-02T16:32:56.282Z,98951.56
2022-10-02T16:34:27.101Z,98936.78
2022-10-02T16:35:43.850Z,98930.03
2022-10-02T16:37:37.517Z,98923.44
2022-10-02T16:38:51.168Z,98920.19
2022-10-02T16:40:18.335Z,98910.63
2022-10-02T16:42:23.784Z,98910.34
2022-10-02T16:44:28.733Z,98913.00
2022-10-02T16:45:59.593Z,98908.78
2022-10-02T16:47:21.045Z,98915.69
2022-10-02T16:49:11.080Z,98922.88
2022-10-02T16:50:44.822Z,98922.59
2022-10-02T16:52:10.900Z,98921.59
2022-10-02T16:53:28.973Z,98928.31
2022-10-02T16:54:50.768Z,98922.59
2022-10-02T16:56:43.352Z,98923.28
2022-10-02T16:58:10.471Z,98929.31
2022-10-02T16:59:27.717Z,98929.59
2022-10-02T17:00:50.827Z,98917.66
2022-10-02T17:02:28.706Z,98909.91
2022-10-02T17:03:41.961Z,98917.78
2022-10-02T17:04:55.613Z,98918.03
2022-10-02T17:06:34.405Z,98915.53
2022-10-02T17:07:45.446Z,98908.75
2022-10-02T17:09:06.022Z,98907.91
2022-10-02T17:10:53.415Z,98908.63
2022-10-02T17:12:15.236Z,98914.41
2022-10-02T17:13:37.756Z,98913.84
2022-10-02T17:15:02.991Z,98915.63
2022-10-02T17:16:21.618Z,98911.44
2022-10-02T17:17:43.305Z,98917.31
2022-10-02T17:18:58.512Z,98914.22
2022-10-02T17:20:02.334Z,98921.13
2022-10-02T17:21:31.597Z,98914.94
2022-10-02T17:23:16.996Z,98911.28
2022-10-02T17:25:07.189Z,98913.94
2022-10-02T17:26:50.085Z,98919.56
2022-10-02T17:28:36.114Z,98910.59
2022-10-02T17:29:48.796Z,98909.59
2022-10-02T17:31:26.652Z,98898.34
2022-10-02T17:32:47.250Z,98903.53
2022-10-02T17:34:21.818Z,98905.25
2022-10-02T17:35:44.748Z,98894.41
2022-10-02T17:37:14.737Z,98901.16
2022-10-02T17:38:40.582Z,98892.84
2022-10-02T17:40:02.050Z,98896.78
2022-10-02T17:41:51.860Z,98891.59
2022-10-02T17:43:09.276Z,98890.63
2022-10-02T17:45:05.009Z,98894.81
2022-10-02T17:46:43.341Z,98889.47
2022-10-02T17:48:28.040Z,98882.47
2022-10-02T17:50:14.070Z,98884.44
2022-10-02T17:52:35.610Z,98878.81
2022-10-02T17:54:32.603Z,98880.22
2022-10-02T17:56:26.269Z,98886.25
2022-10-02T17:58:14.257Z,98879.50
2022-10-02T17:59:43.920Z,98883.88
2022-10-02T18:01:31.366Z,98871.38
2022-10-02T18:03:23.543Z,98872.91
2022-10-02T18:04:57.318Z,98867.88
2022-10-02T18:06:30.927Z,98867.88
2022-10-02T18:08:28.534Z,98865.59
2022-10-02T18:10:01.128Z,98877.25
2022-10-02T18:11:19.709Z,98877.41
2022-10-02T18:12:46.661Z,98871.94
2022-10-02T18:14:06.443Z,98873.06
2022-10-02T18:15:52.279Z,98870.50
2022-10-02T18:17:54.725Z,98857.28
2022-10-02T18:19:30.295Z,98863.03
2022-10-02T18:21:13.611Z,98877.13
2022-10-02T18:22:58.976Z,98870.78
2022-10-02T18:24:21.403Z,98862.78
2022-10-02T18:25:52.395Z,98858.56
2022-10-02T18:27:27.880Z,98866.69
2022-10-02T18:29:20.985Z,98869.66
2022-10-02T18:30:47.505Z,98862.59
2022-10-02T18:32:17.755Z,98874.53
2022-10-02T18:33:41.286Z,98868.22
2022-10-02T18:35:23.362Z,98877.75
2022-10-02T18:37:03.006Z,98866.09
2022-10-02T18:38:45.423Z,98872.00
2022-10-02T18:40:18.086Z,98872.72
2022-10-02T18:42:20.582Z,98874.53
2022-10-02T18:43:58.674Z,98876.22
2022-10-02T18:45:27.492Z,98865.38
2022-10-02T18:47:20.279Z,98868.63
2022-10-02T18:48:57.578Z,98868.75
2022-10-02T18:50:37.413Z,98865.66
2022-10-02T18:52:16.086Z,98867.22
2022-10-02T18:53:35.858Z,98874.09
2022-10-02T18:55:28.628Z,98878.03
2022-10-02T18:57:08.985Z,98874.38
2022-10-02T18:59:11.362Z,98868.19
2022-10-02T19:00:34.315Z,98866.63
2022-10-02T19:02:30.246Z,98862.13
2022-10-02T19:03:54.928Z,98869.13
2022-10-02T19:05:46.697Z,98874.47
2022-10-02T19:07:09.212Z,98884.16
2022-10-02T19:09:10.095Z,98886.97
2022-10-02T19:10:41.100Z,98899.06
2022-10-02T19:12:13.528Z,98905.50
2022-10-02T19:13:29.032Z,98930.78
2022-10-02T19:14:46.075Z,98968.19
2022-10-02T19:15:58.118Z,98954.44
2022-10-02T19:17:12.096Z,98956.19
2022-10-02T19:18:25.748Z,98951.88
2022-10-02T19:19:45.726Z,98956.72
2022-10-02T19:21:15.039Z,98955.16
2022-10-02T19:22:33.411Z,98945.50
2022-10-02T19:24:21.282Z,98939.06
2022-10-02T19:25:44.682Z,98931.47
2022-10-02T19:27:01.298Z,98941.66
2022-10-02T19:28:23.977Z,98939.72
2022-10-02T19:29:56.862Z,98923.91
2022-10-02T19:31:13.419Z,98915.59
2022-10-02T19:32:32.274Z,98923.84
2022-10-02T19:33:53.579Z,98909.94
2022-10-02T19:35:22.128Z,98917.06
2022-10-02T19:36:53.555Z,98935.84
2022-10-02T19:38:35.754Z,98942.41
2022-10-02T19:40:00.316Z,98941.81
2022-10-02T19:41:15.449Z,98941.22
2022-10-02T19:42:30.092Z,98933.84
2022-10-02T19:44:09.067Z,98935.81
2022-10-02T19:45:35.750Z,98942.59
2022-10-02T19:46:53.283Z,98920.81
2022-10-02T19:48:11.804Z,98935.13
2022-10-02T19:49:39.784Z,98927.38
2022-10-02T19:51:18.642Z,98925.91
2022-10-02T19:53:04.213Z,98929.03
2022-10-02T19:54:23.682Z,98921.78
2022-10-02T19:55:39.659Z,98929.63
2022-10-02T19:57:22.505Z,98922.22
2022-10-02T19:58:45.271Z,98926.34
2022-10-02T19:59:57.666Z,98929.25
2022-10-02T20:01:22.555Z,98928.66
2022-10-02T20:02:36.089Z,98932.16
2022-10-02T20:03:41.605Z,98926.00
2022-10-02T20:04:47.717Z,98925.88
2022-10-02T20:06:15.011Z,98929.78
2022-10-02T20:07:27.464Z,98936.78
2022-10-02T20:08:54.232Z,98944.78
2022-10-02T20:10:11.606Z,98935.94
2022-10-02T20:11:29.425Z,98944.78
2022-10-02T20:13:37.441Z,98932.53
2022-10-02T20:16:02.103Z,98935.94
2022-10-02T20:17:15.068Z,98936.44
2022-10-02T20:18:25.279Z,98937.00
2022-10-02T20:19:39.737Z,98937.84
2022-10-02T20:20:53.350Z,98942.00